Time;durP1;ratioP1;P1;durP2;ratioP2;P2;SDS_P1;SDS_P2;PMS_P1;PMS_P2;Temp;Humidity;BMP_temperature;BMP_pressure;BME280_temperature;BME280_humidity;BME280_pressure;Samples;Min_cycle;Max_cycle;Signal;HPM_P1;HPM_P2
2022/01/27 00:00:36;;;;;;;76.38;65.25;;;;;;;-1.10;100.00;101936.59;5060366;28;20507;-80
2022/01/27 00:03:18;;;;;;;77.78;64.13;;;;;;;-1.13;100.00;101942.00;5065326;28;20107;-80
2022/01/27 00:05:50;;;;;;;75.25;67.03;;;;;;;-1.10;100.00;101935.78;5062654;28;20193;-82
2022/01/27 00:08:22;;;;;;;77.05;65.65;;;;;;;-1.17;100.00;101936.16;5068763;28;20390;-79
2022/01/27 00:10:53;;;;;;;76.35;63.88;;;;;;;-1.17;100.00;101946.59;5069697;28;20122;-80
2022/01/27 00:13:24;;;;;;;79.40;62.22;;;;;;;-1.18;100.00;101939.72;5066239;28;20087;-81
2022/01/27 00:15:59;;;;;;;84.40;69.88;;;;;;;-1.13;100.00;101933.38;5070096;28;20055;-81
2022/01/27 00:18:29;;;;;;;92.60;69.43;;;;;;;-1.20;100.00;101931.16;5068741;28;20059;-83
2022/01/27 00:20:56;;;;;;;78.90;63.33;;;;;;;-1.13;100.00;101931.59;5068454;28;20051;-80
2022/01/27 00:23:23;;;;;;;73.32;61.75;;;;;;;-1.16;100.00;101937.00;5069284;28;20122;-83
2022/01/27 00:25:51;;;;;;;72.28;64.38;;;;;;;-1.11;100.00;101934.94;5069335;28;20113;-80
2022/01/27 00:28:18;;;;;;;178.00;96.47;;;;;;;-1.19;100.00;101938.03;5062198;28;20439;-80
2022/01/27 00:30:45;;;;;;;75.55;66.95;;;;;;;-1.14;100.00;101929.94;5069566;28;20064;-80
2022/01/27 00:33:12;;;;;;;100.07;71.15;;;;;;;-1.15;100.00;101936.06;5047041;28;20378;-83
2022/01/27 00:35:38;;;;;;;74.65;64.65;;;;;;;-1.17;100.00;101936.16;5055686;28;20126;-80
2022/01/27 00:38:05;;;;;;;78.70;67.68;;;;;;;-1.20;100.00;101935.53;5055883;28;20052;-82
2022/01/27 00:40:32;;;;;;;114.10;75.32;;;;;;;-1.15;100.00;101938.66;5053211;28;20107;-83
2022/01/27 00:43:00;;;;;;;83.97;64.03;;;;;;;-1.19;100.00;101937.19;5053656;28;20447;-82
2022/01/27 00:48:07;;;;;;;73.95;63.70;;;;;;;-1.20;100.00;101936.38;5086099;27;20393;-80
2022/01/27 00:50:37;;;;;;;79.70;65.88;;;;;;;-1.42;100.00;101933.50;5070632;28;20053;-81
2022/01/27 00:53:16;;;;;;;71.78;62.75;;;;;;;-1.51;100.00;101940.13;5069976;28;20106;-82
2022/01/27 00:55:42;;;;;;;75.82;65.95;;;;;;;-1.35;100.00;101929.53;5061764;28;20127;-80
2022/01/27 00:58:23;;;;;;;71.78;60.30;;;;;;;-1.34;100.00;101928.59;5068148;28;20064;-80
2022/01/27 01:00:56;;;;;;;70.00;62.33;;;;;;;-1.37;100.00;101915.75;5070014;28;20125;-80
2022/01/27 01:03:30;;;;;;;76.65;64.70;;;;;;;-1.42;100.00;101923.91;5070610;28;20378;-79
2022/01/27 01:06:19;;;;;;;71.13;63.55;;;;;;;-1.45;100.00;101931.91;5070011;28;20049;-83
2022/01/27 01:10:07;;;;;;;72.95;65.22;;;;;;;-1.50;100.00;101928.75;5059172;28;20076;-83
2022/01/27 01:12:31;;;;;;;77.80;69.47;;;;;;;-1.60;100.00;101927.69;5069135;28;20397;-79
2022/01/27 01:14:57;;;;;;;252.55;115.57;;;;;;;-1.66;100.00;101923.69;5065794;28;20489;-82
2022/01/27 01:17:40;;;;;;;129.80;83.40;;;;;;;-1.61;100.00;101932.03;5069873;28;20049;-83
2022/01/27 01:20:27;;;;;;;73.78;61.90;;;;;;;-1.59;100.00;101926.72;5062224;28;20068;-79
2022/01/27 01:31:29;;;;;;;77.13;65.60;;;;;;;-1.70;100.00;101930.00;5059878;28;20179;-82
2022/01/27 01:34:11;;;;;;;87.30;70.25;;;;;;;-1.92;100.00;101932.28;5066863;28;20110;-83
2022/01/27 01:36:48;;;;;;;86.32;71.82;;;;;;;-2.01;100.00;101941.50;5066595;28;20048;-80
2022/01/27 01:39:14;;;;;;;89.28;67.80;;;;;;;-2.05;100.00;101931.38;5066552;28;20040;-82
2022/01/27 01:41:42;;;;;;;86.68;68.78;;;;;;;-2.13;100.00;101937.03;5064866;28;20125;-80
2022/01/27 01:44:09;;;;;;;105.72;82.10;;;;;;;-2.19;100.00;101932.22;5068871;28;20049;-80
2022/01/27 01:46:36;;;;;;;93.35;68.20;;;;;;;-2.63;100.00;101920.09;5069417;28;20052;-80
2022/01/27 01:49:04;;;;;;;91.30;70.32;;;;;;;-3.02;100.00;101918.91;5057421;28;20044;-83
2022/01/27 01:51:32;;;;;;;98.72;80.20;;;;;;;-2.70;100.00;101917.03;5065484;28;20048;-78
2022/01/27 01:54:01;;;;;;;92.20;72.32;;;;;;;-3.00;100.00;101907.47;5066606;28;20135;-82
2022/01/27 01:56:28;;;;;;;106.53;77.95;;;;;;;-2.98;100.00;101904.81;5068210;28;20045;-79
2022/01/27 01:58:54;;;;;;;115.10;87.78;;;;;;;-2.49;100.00;101914.09;5058783;28;20119;-82
2022/01/27 02:01:21;;;;;;;111.47;82.93;;;;;;;-2.81;100.00;101902.06;5054031;28;20111;-80
2022/01/27 02:03:48;;;;;;;95.13;81.18;;;;;;;-2.62;100.00;101914.81;5055892;28;20053;-82
2022/01/27 02:06:22;;;;;;;92.30;80.03;;;;;;;-2.88;100.00;101902.50;5054932;28;20049;-80
2022/01/27 02:09:06;;;;;;;92.80;77.80;;;;;;;-2.84;100.00;101904.84;5047736;28;20068;-81
2022/01/27 02:20:02;;;;;;;92.50;73.57;;;;;;;-3.20;100.00;101914.78;5053459;28;20083;-81
2022/01/27 02:22:29;;;;;;;99.50;82.90;;;;;;;-3.33;100.00;101910.28;5055334;28;20045;-81
2022/01/27 02:24:56;;;;;;;95.45;81.13;;;;;;;-2.92;100.00;101912.25;5047270;28;20053;-80
2022/01/27 02:27:23;;;;;;;82.70;70.78;;;;;;;-3.07;100.00;101911.38;5053944;28;20443;-83
2022/01/27 02:29:50;;;;;;;79.90;64.38;;;;;;;-3.26;100.00;101913.38;5051983;28;20065;-83
2022/01/27 02:32:19;;;;;;;108.55;79.05;;;;;;;-2.98;100.00;101923.00;5038917;28;20049;-80
2022/01/27 02:34:47;;;;;;;94.28;75.88;;;;;;;-3.23;100.00;101911.41;5055301;28;20049;-82
2022/01/27 02:37:15;;;;;;;87.13;74.65;;;;;;;-3.05;100.00;101927.72;5043627;28;20056;-82
2022/01/27 02:39:42;;;;;;;92.82;72.35;;;;;;;-3.70;100.00;101914.91;5051223;28;20457;-82
2022/01/27 02:42:15;;;;;;;93.28;80.20;;;;;;;-3.93;100.00;101920.53;5053896;28;20118;-80
2022/01/27 02:44:52;;;;;;;93.40;76.72;;;;;;;-3.81;100.00;101917.28;5055001;28;20045;-81
2022/01/27 02:47:20;;;;;;;115.22;87.70;;;;;;;-3.78;100.00;101921.44;5054638;28;20053;-79
2022/01/27 02:49:47;;;;;;;114.97;90.97;;;;;;;-3.59;100.00;101924.72;5050383;28;20053;-83
2022/01/27 02:52:17;;;;;;;97.65;73.10;;;;;;;-3.68;100.00;101922.63;5055013;28;20110;-81
2022/01/27 02:54:44;;;;;;;89.57;69.63;;;;;;;-3.62;100.00;101916.25;5048793;28;20076;-79
2022/01/27 02:57:11;;;;;;;91.72;67.80;;;;;;;-3.84;100.00;101925.22;5053740;28;20091;-80
2022/01/27 02:59:38;;;;;;;88.03;73.68;;;;;;;-3.85;100.00;101913.16;5053654;28;20049;-80
2022/01/27 03:02:05;;;;;;;80.70;65.38;;;;;;;-3.88;100.00;101926.28;5145476;22;20130;-79
2022/01/27 03:04:33;;;;;;;90.95;66.22;;;;;;;-4.28;100.00;101923.22;5032528;28;20386;-81
2022/01/27 03:07:03;;;;;;;94.35;69.85;;;;;;;-4.06;100.00;101930.72;5034734;28;20440;-81
2022/01/27 03:09:31;;;;;;;100.65;69.07;;;;;;;-4.08;100.00;101935.16;5032881;28;20370;-82
2022/01/27 03:12:00;;;;;;;88.93;68.70;;;;;;;-4.16;100.00;101934.72;5034854;28;20107;-82
2022/01/27 03:14:29;;;;;;;92.85;67.78;;;;;;;-4.70;100.00;101926.28;5034838;28;20485;-80
2022/01/27 03:16:58;;;;;;;98.72;68.50;;;;;;;-4.59;100.00;101929.16;5030422;28;20057;-81
2022/01/27 03:19:25;;;;;;;97.10;72.40;;;;;;;-4.74;100.00;101935.97;5034202;28;20068;-82
2022/01/27 03:21:53;;;;;;;93.45;73.90;;;;;;;-4.89;100.00;101924.63;5034264;28;20457;-82
2022/01/27 03:24:20;;;;;;;98.50;71.63;;;;;;;-4.89;100.00;101934.97;5033957;28;20041;-82
2022/01/27 03:26:48;;;;;;;104.63;77.03;;;;;;;-4.88;100.00;101934.06;5034272;28;20053;-81
2022/01/27 03:29:16;;;;;;;109.72;85.85;;;;;;;-4.80;100.00;101930.25;5034299;28;20053;-81
2022/01/27 03:31:43;;;;;;;117.47;87.35;;;;;;;-4.62;100.00;101930.16;5034733;28;20045;-80
2022/01/27 03:34:10;;;;;;;109.78;77.18;;;;;;;-4.88;100.00;101933.22;5034101;28;20056;-81
2022/01/27 03:36:37;;;;;;;108.95;76.72;;;;;;;-4.73;100.00;101923.84;5034018;28;20103;-82
2022/01/27 03:39:04;;;;;;;98.95;79.75;;;;;;;-4.85;100.00;101925.28;5030082;28;20058;-82
2022/01/27 03:41:34;;;;;;;104.57;81.40;;;;;;;-4.80;100.00;101935.44;5034146;28;20476;-80
2022/01/27 03:44:04;;;;;;;111.63;80.93;;;;;;;-4.71;100.00;101946.19;5033922;28;20057;-81
2022/01/27 03:46:30;;;;;;;108.97;77.90;;;;;;;-4.72;100.00;101935.88;5034352;28;20054;-82
2022/01/27 03:48:57;;;;;;;105.38;81.35;;;;;;;-4.81;100.00;101934.63;5033429;28;20511;-83
2022/01/27 03:54:06;;;;;;;104.72;80.55;;;;;;;-5.31;100.00;101935.31;5077704;27;20399;-82
2022/01/27 03:56:33;;;;;;;116.53;88.18;;;;;;;-5.11;100.00;101937.81;5070148;28;20060;-82
2022/01/27 03:59:00;;;;;;;106.18;82.40;;;;;;;-5.24;100.00;101948.81;5068701;28;20053;-80
2022/01/27 04:01:27;;;;;;;112.93;82.43;;;;;;;-5.12;100.00;101946.47;5070881;28;20052;-82
2022/01/27 04:03:56;;;;;;;102.93;74.38;;;;;;;-5.45;100.00;101938.56;5069984;28;20052;-83
2022/01/27 04:06:32;;;;;;;112.90;75.70;;;;;;;-5.57;100.00;101941.72;5065206;28;20072;-81
2022/01/27 04:08:59;;;;;;;96.43;78.10;;;;;;;-5.65;100.00;101942.09;5065584;28;20045;-81
2022/01/27 04:11:27;;;;;;;106.85;79.60;;;;;;;-5.43;100.00;101949.69;5069777;28;20074;-80
2022/01/27 04:13:54;;;;;;;97.47;71.25;;;;;;;-5.63;100.00;101947.19;5069555;28;20463;-83
2022/01/27 04:16:21;;;;;;;102.20;82.32;;;;;;;-5.63;100.00;101937.66;5055955;28;20470;-83
2022/01/27 04:18:48;;;;;;;108.18;79.45;;;;;;;-6.00;100.00;101933.38;5066283;28;20049;-82
2022/01/27 04:21:15;;;;;;;98.78;74.57;;;;;;;-5.78;100.00;101939.25;5066644;28;20129;-82
2022/01/27 04:23:42;;;;;;;108.15;81.50;;;;;;;-5.54;100.00;101941.59;5059737;28;20049;-80
2022/01/27 04:26:11;;;;;;;99.95;76.68;;;;;;;-5.47;100.00;101949.94;5069991;28;20110;-80
2022/01/27 04:28:40;;;;;;;108.13;79.00;;;;;;;-5.78;100.00;101944.41;5067734;28;20056;-79
2022/01/27 04:31:09;;;;;;;111.32;83.72;;;;;;;-5.98;100.00;101941.09;5070221;28;20091;-83
2022/01/27 04:33:38;;;;;;;108.43;75.35;;;;;;;-5.82;100.00;101944.63;5069859;28;20045;-82
2022/01/27 04:36:11;;;;;;;123.10;87.93;;;;;;;-5.49;100.00;101957.75;5063678;28;20045;-80
2022/01/27 04:38:44;;;;;;;134.93;100.13;;;;;;;-5.83;100.00;101940.38;5065525;28;20063;-82
2022/01/27 04:41:16;;;;;;;117.90;88.15;;;;;;;-5.86;100.00;101948.25;5068948;28;20114;-81
2022/01/27 04:43:50;;;;;;;;;;;;;;;-5.86;100.00;101940.50;5067967;28;20401;-79
2022/01/27 04:46:26;;;;;;;180.98;109.75;;;;;;;-5.94;100.00;101927.09;5063276;28;19920;-82
2022/01/27 04:51:35;;;;;;;170.77;103.40;;;;;;;-5.63;100.00;101935.09;5075673;27;20916;-80
2022/01/27 04:54:07;;;;;;;163.52;94.38;;;;;;;-5.39;100.00;101947.78;5080511;28;20048;-82
2022/01/27 04:56:36;;;;;;;154.98;98.53;;;;;;;-5.29;100.00;101941.28;5079497;28;20079;-79
2022/01/27 04:59:09;;;;;;;143.70;96.18;;;;;;;-5.27;100.00;101944.63;5076217;28;20041;-79
2022/01/27 05:04:08;;;;;;;180.57;122.07;;;;;;;-4.77;100.00;101956.03;5078217;27;20402;-82
2022/01/27 05:06:35;;;;;;;160.85;96.75;;;;;;;-4.69;100.00;101954.72;5083536;28;20086;-79
2022/01/27 05:09:02;;;;;;;155.65;97.18;;;;;;;-4.87;100.00;101963.41;5075875;28;20518;-80
2022/01/27 05:11:32;;;;;;;153.50;104.05;;;;;;;-4.30;100.00;101965.72;5080303;28;20045;-79
2022/01/27 05:14:05;;;;;;;148.85;100.53;;;;;;;-4.69;100.00;101962.50;5077372;28;20082;-83
2022/01/27 05:18:58;;;;;;;151.80;100.35;;;;;;;-4.49;100.00;101960.66;5078804;27;20932;-80
2022/01/27 05:21:26;;;;;;;152.70;104.50;;;;;;;-4.22;100.00;101961.81;5084678;28;20048;-82
2022/01/27 05:23:53;;;;;;;171.45;109.43;;;;;;;-3.93;100.00;101956.88;5083872;28;20459;-79
2022/01/27 05:26:19;;;;;;;185.57;108.20;;;;;;;-3.88;100.00;101960.03;5080335;28;20201;-82
2022/01/27 05:28:46;;;;;;;149.93;96.80;;;;;;;-3.92;100.00;101969.75;5074795;28;20462;-81
2022/01/27 05:31:13;;;;;;;135.10;88.03;;;;;;;-3.52;100.00;101971.97;5079570;28;20060;-81
2022/01/27 05:33:39;;;;;;;135.50;93.45;;;;;;;-3.26;100.00;101986.13;5079066;28;20492;-80
2022/01/27 05:36:08;;;;;;;136.27;88.13;;;;;;;-3.27;100.00;101990.50;5084546;28;20045;-83
2022/01/27 05:38:37;;;;;;;117.50;90.22;;;;;;;-3.14;100.00;101995.84;5082774;28;20086;-82
2022/01/27 05:41:04;;;;;;;139.40;97.82;;;;;;;-2.75;100.00;102004.91;5079868;28;20063;-79
2022/01/27 05:43:32;;;;;;;113.25;82.25;;;;;;;-3.16;100.00;102004.63;5080063;28;20102;-82
2022/01/27 05:45:58;;;;;;;119.18;85.32;;;;;;;-3.24;100.00;102003.31;5079647;28;20040;-82
2022/01/27 05:48:25;;;;;;;113.90;81.70;;;;;;;-3.20;100.00;101998.78;5083365;28;20044;-81
2022/01/27 05:50:52;;;;;;;121.03;78.90;;;;;;;-3.35;100.00;101995.25;5084581;28;20117;-82
2022/01/27 05:53:20;;;;;;;123.10;82.03;;;;;;;-2.91;100.00;101984.13;5077769;28;20106;-80
2022/01/27 05:55:47;;;;;;;121.65;82.95;;;;;;;-2.87;100.00;101977.00;5080461;28;20504;-80
2022/01/27 05:58:13;;;;;;;118.35;78.20;;;;;;;-2.58;100.00;101977.91;5080955;28;20098;-80
2022/01/27 06:00:40;;;;;;;151.27;112.70;;;;;;;-2.46;100.00;101973.75;5070993;28;20048;-82
2022/01/27 06:03:07;;;;;;;155.20;119.78;;;;;;;-2.66;100.00;101982.69;5075637;28;20117;-83
2022/01/27 06:05:34;;;;;;;139.63;99.22;;;;;;;-2.64;100.00;101986.91;5082061;28;20048;-83
2022/01/27 06:08:01;;;;;;;138.23;101.50;;;;;;;-2.81;100.00;101992.25;5077146;28;20059;-83
2022/01/27 06:10:29;;;;;;;140.13;101.30;;;;;;;-2.38;100.00;101994.94;5080371;28;20472;-79
2022/01/27 06:12:57;;;;;;;139.23;106.13;;;;;;;-2.53;100.00;101999.28;5079140;28;20169;-81
2022/01/27 06:15:24;;;;;;;182.52;120.15;;;;;;;-2.35;100.00;102000.81;5079514;28;20136;-78
2022/01/27 06:17:51;;;;;;;166.20;119.07;;;;;;;-2.31;100.00;101996.25;5071640;28;20118;-82
2022/01/27 06:20:19;;;;;;;158.25;109.32;;;;;;;-2.60;100.00;102004.03;5080263;28;20110;-80
2022/01/27 06:22:45;;;;;;;175.30;113.90;;;;;;;-2.38;100.00;102001.00;5055534;28;20105;-82
2022/01/27 06:25:14;;;;;;;172.18;123.53;;;;;;;-2.49;100.00;102015.56;5069007;28;20064;-81
2022/01/27 06:27:42;;;;;;;153.45;108.75;;;;;;;-2.41;100.00;102016.78;5080236;28;20044;-82
2022/01/27 06:30:11;;;;;;;155.18;111.65;;;;;;;-2.33;100.00;101998.09;5071286;28;20040;-83
2022/01/27 06:32:38;;;;;;;177.52;117.65;;;;;;;-2.13;100.00;102015.16;5073448;28;20052;-81
2022/01/27 06:35:05;;;;;;;167.13;117.43;;;;;;;-2.03;100.00;102011.06;5065263;28;20045;-80
2022/01/27 06:37:32;;;;;;;166.88;118.80;;;;;;;-1.98;100.00;102016.00;5064124;28;20045;-82
2022/01/27 06:39:59;;;;;;;147.10;110.90;;;;;;;-2.00;100.00;102004.81;5074697;28;20118;-82
2022/01/27 06:42:27;;;;;;;142.52;107.90;;;;;;;-1.67;100.00;102007.97;5073006;28;20113;-84
2022/01/27 06:44:55;;;;;;;169.88;118.63;;;;;;;-1.70;100.00;101991.69;5068051;28;20086;-82
2022/01/27 06:47:22;;;;;;;146.60;111.63;;;;;;;-1.78;100.00;101993.97;5058813;28;20044;-81
2022/01/27 06:49:49;;;;;;;147.55;107.75;;;;;;;-1.79;100.00;102010.50;5069996;28;20044;-83
2022/01/27 06:55:01;;;;;;;149.57;106.25;;;;;;;-1.66;100.00;101995.81;5089556;27;20400;-82
2022/01/27 06:57:28;;;;;;;152.77;108.07;;;;;;;-1.64;100.00;101984.31;5081912;28;20412;-81
2022/01/27 06:59:55;;;;;;;112.28;98.53;;;;;;;0.57;100.00;101987.81;5075162;28;20136;-80
2022/01/27 07:02:22;;;;;;;127.03;98.45;;;;;;;-0.78;100.00;101972.78;5063946;28;20048;-80
2022/01/27 07:07:21;;;;;;;120.32;106.38;;;;;;;-1.03;100.00;101968.31;5163943;27;20906;-78
2022/01/27 07:09:48;;;;;;;124.90;104.47;;;;;;;-0.51;100.00;101970.94;5154759;27;20123;-80
2022/01/27 07:12:15;;;;;;;113.93;96.88;;;;;;;-0.53;100.00;101990.25;5162413;27;20046;-79
2022/01/27 07:14:41;;;;;;;109.93;98.10;;;;;;;-0.18;100.00;101990.50;5157270;27;20042;-79
2022/01/27 07:17:08;;;;;;;121.32;108.68;;;;;;;-0.09;100.00;101995.09;5171130;27;20106;-80
2022/01/27 07:19:35;;;;;;;112.22;100.93;;;;;;;-0.11;100.00;101989.13;5160757;27;20066;-80
2022/01/27 07:22:02;;;;;;;114.75;103.13;;;;;;;-0.06;100.00;101973.97;5150707;27;20471;-83
2022/01/27 07:24:30;;;;;;;102.50;92.03;;;;;;;0.01;100.00;101989.22;5151517;27;20058;-78
2022/01/27 07:26:57;;;;;;;102.78;92.35;;;;;;;0.04;100.00;101986.41;5151495;27;20043;-81
2022/01/27 07:29:24;;;;;;;106.00;95.80;;;;;;;0.32;100.00;101974.84;5155163;27;20130;-79
2022/01/27 07:31:50;;;;;;;114.43;103.63;;;;;;;0.16;100.00;101986.38;5171123;27;20474;-80
2022/01/27 07:34:17;;;;;;;108.40;98.80;;;;;;;0.66;100.00;101981.09;5160443;27;20084;-81
2022/01/27 07:36:44;;;;;;;105.95;96.15;;;;;;;0.98;100.00;101977.94;5157646;27;20559;-81
2022/01/27 07:39:14;;;;;;;98.28;89.10;;;;;;;0.43;100.00;101982.78;5155736;27;20089;-81
2022/01/27 07:41:44;;;;;;;111.05;100.32;;;;;;;0.55;100.00;101983.69;5156527;27;20376;-81
2022/01/27 07:44:11;;;;;;;117.28;105.70;;;;;;;0.96;100.00;101975.44;5157331;27;20118;-82
2022/01/27 07:46:38;;;;;;;116.57;105.75;;;;;;;0.73;100.00;101984.09;5156685;27;20047;-80
2022/01/27 07:49:05;;;;;;;119.53;108.57;;;;;;;0.94;100.00;101985.19;5163076;27;20482;-80
2022/01/27 07:51:32;;;;;;;111.03;101.05;;;;;;;0.65;100.00;101993.34;5154251;27;20043;-79
2022/01/27 07:53:58;;;;;;;104.30;94.90;;;;;;;0.75;100.00;101985.66;5157538;27;20111;-80
2022/01/27 07:56:26;;;;;;;105.07;95.55;;;;;;;0.94;100.00;101979.97;5158616;27;20121;-80
2022/01/27 07:58:54;;;;;;;108.03;98.13;;;;;;;0.87;100.00;101994.41;5161056;27;20047;-81
2022/01/27 08:01:21;;;;;;;108.25;98.03;;;;;;;0.97;100.00;101992.81;5158765;27;20046;-81
2022/01/27 08:03:48;;;;;;;107.10;97.32;;;;;;;0.95;100.00;101988.63;5154868;27;20051;-81
2022/01/27 08:06:15;;;;;;;104.60;95.13;;;;;;;1.04;100.00;101980.94;5157570;27;20456;-81
2022/01/27 08:08:43;;;;;;;103.55;94.22;;;;;;;0.65;100.00;101987.28;5156687;27;20481;-79
2022/01/27 08:11:09;;;;;;;98.60;89.15;;;;;;;0.93;100.00;101980.88;5156109;27;20083;-81
2022/01/27 08:13:37;;;;;;;100.45;91.65;;;;;;;0.93;100.00;101985.28;5162730;27;20046;-80
2022/01/27 08:16:06;;;;;;;95.30;87.07;;;;;;;1.17;100.00;101978.25;5161029;27;20427;-79
2022/01/27 08:18:32;;;;;;;95.95;87.55;;;;;;;0.88;100.00;101977.78;5139579;27;20118;-80
2022/01/27 08:20:59;;;;;;;99.78;91.03;;;;;;;0.80;100.00;101995.81;5147663;27;20467;-79
2022/01/27 08:23:26;;;;;;;101.40;92.68;;;;;;;0.74;100.00;101998.88;5147255;27;20107;-79
2022/01/27 08:26:02;;;;;;;100.20;91.30;;;;;;;1.34;100.00;102005.81;5147388;27;20393;-81
2022/01/27 08:28:33;;;;;;;79.40;72.75;;;;;;;2.20;100.00;102009.72;5148733;27;20110;-83
2022/01/27 08:31:02;;;;;;;86.23;78.57;;;;;;;1.81;100.00;102002.19;5151760;27;20134;-80
2022/01/27 08:33:30;;;;;;;93.57;85.10;;;;;;;2.16;100.00;102011.75;5144332;27;20674;-81
2022/01/27 08:35:58;;;;;;;93.18;85.25;;;;;;;1.97;100.00;102016.78;5144854;27;20051;-81
2022/01/27 08:38:25;;;;;;;93.40;84.95;;;;;;;2.79;100.00;102016.47;5144934;27;20391;-79
2022/01/27 08:40:52;;;;;;;92.18;84.00;;;;;;;2.42;100.00;102020.22;5139313;27;20067;-79
2022/01/27 08:43:19;;;;;;;98.43;89.82;;;;;;;2.36;100.00;102027.72;5151270;27;20046;-81
2022/01/27 08:45:46;;;;;;;87.30;80.18;;;;;;;1.89;100.00;102017.34;5137948;27;20047;-80
2022/01/27 08:48:17;;;;;;;92.93;84.72;;;;;;;2.85;100.00;102032.53;5150987;27;20051;-79
2022/01/27 08:50:52;;;;;;;94.00;85.47;;;;;;;3.09;100.00;102026.28;5145911;27;20058;-81
2022/01/27 08:53:19;;;;;;;86.35;78.75;;;;;;;2.64;100.00;102027.22;5142635;27;20112;-85
2022/01/27 08:55:46;;;;;;;93.85;85.10;;;;;;;2.70;100.00;102037.22;5140884;27;20046;-80
2022/01/27 08:58:12;;;;;;;102.45;93.50;;;;;;;2.16;100.00;102027.50;5142521;27;20078;-80
2022/01/27 09:00:40;;;;;;;95.63;87.60;;;;;;;2.56;100.00;102034.84;5144252;27;20474;-80
2022/01/27 09:03:08;;;;;;;89.63;82.30;;;;;;;2.25;100.00;102025.94;5142778;27;20043;-80
2022/01/27 09:05:35;;;;;;;96.13;87.80;;;;;;;2.37;100.00;102030.22;5145740;27;20043;-78
2022/01/27 09:08:03;;;;;;;93.30;85.68;;;;;;;3.18;100.00;102023.72;5146574;27;20065;-80
2022/01/27 09:10:32;;;;;;;89.15;81.93;;;;;;;4.00;100.00;102012.50;5135891;27;20047;-81
2022/01/27 09:12:59;;;;;;;85.90;78.72;;;;;;;4.11;100.00;102015.06;5136320;27;20078;-79
2022/01/27 09:15:25;;;;;;;88.60;80.78;;;;;;;3.67;100.00;102009.13;5147681;27;20478;-78
2022/01/27 09:17:52;;;;;;;93.60;85.57;;;;;;;4.23;100.00;102017.56;5150811;27;20487;-81
2022/01/27 09:20:19;;;;;;;93.63;86.13;;;;;;;5.24;100.00;102003.34;5152853;27;20047;-83
2022/01/27 09:22:47;;;;;;;95.50;87.70;;;;;;;5.15;100.00;102014.72;5145296;27;20421;-81
2022/01/27 09:25:19;;;;;;;95.57;87.70;;;;;;;3.98;100.00;102013.59;5138504;27;20062;-81
2022/01/27 09:27:46;;;;;;;;;;;;;;;3.23;100.00;102002.31;5142475;27;20463;-79
2022/01/27 09:30:15;;;;;;;84.93;77.78;;;;;;;4.45;100.00;102012.13;5139816;27;20430;-80
2022/01/27 09:32:42;;;;;;;85.35;78.15;;;;;;;3.71;100.00;102003.63;5137222;27;20107;-80
2022/01/27 09:35:09;;;;;;;83.95;77.03;;;;;;;3.71;100.00;102009.69;5142418;27;20050;-81
2022/01/27 09:37:36;;;;;;;81.15;74.40;;;;;;;4.04;100.00;102003.38;5146018;27;20046;-78
2022/01/27 09:40:06;;;;;;;82.88;76.20;;;;;;;3.70;100.00;101996.72;5150265;27;20047;-78
2022/01/27 09:42:36;;;;;;;79.15;73.07;;;;;;;4.00;100.00;101991.47;5143810;27;20104;-80
2022/01/27 09:45:08;;;;;;;72.85;67.15;;;;;;;3.21;100.00;101988.50;5143967;27;20042;-81
2022/01/27 09:47:37;;;;;;;75.53;69.80;;;;;;;3.64;100.00;101974.41;5152424;27;20398;-80
2022/01/27 09:50:09;;;;;;;89.80;82.45;;;;;;;3.68;100.00;101978.44;5145530;27;20118;-80
2022/01/27 09:52:37;;;;;;;93.90;86.32;;;;;;;3.96;100.00;101978.69;5146035;27;20441;-81
2022/01/27 09:55:05;;;;;;;77.28;71.00;;;;;;;4.03;100.00;101970.16;5145597;27;20470;-79
2022/01/27 09:57:31;;;;;;;79.88;73.78;;;;;;;3.96;100.00;101970.81;5146417;27;20449;-79
2022/01/27 09:59:59;;;;;;;81.65;75.32;;;;;;;3.71;100.00;101961.56;5145075;27;20051;-79
2022/01/27 10:02:27;;;;;;;81.03;74.63;;;;;;;3.85;100.00;101961.25;5137373;27;20055;-80
2022/01/27 10:04:57;;;;;;;84.80;78.18;;;;;;;4.13;100.00;101955.25;5144989;27;20579;-80
2022/01/27 10:07:26;;;;;;;83.22;76.53;;;;;;;4.49;100.00;101950.34;5145341;27;20039;-81
2022/01/27 10:09:59;;;;;;;81.93;75.35;;;;;;;3.80;100.00;101942.41;5144106;27;20046;-80
2022/01/27 10:12:27;;;;;;;75.47;69.78;;;;;;;3.95;100.00;101941.06;5144498;27;20133;-81
2022/01/27 10:15:01;;;;;;;82.82;76.22;;;;;;;5.03;100.00;101946.38;5141018;27;20039;-82
2022/01/27 10:17:29;;;;;;;81.70;75.13;;;;;;;4.90;100.00;101934.44;5134707;27;20406;-78
2022/01/27 10:19:57;;;;;;;79.47;73.25;;;;;;;4.88;100.00;101931.97;5144022;27;20474;-79
2022/01/27 10:22:24;;;;;;;82.95;76.55;;;;;;;4.31;100.00;101942.28;5141331;27;20074;-80
2022/01/27 10:25:00;;;;;;;80.55;74.28;;;;;;;4.18;100.00;101933.81;5142427;27;20047;-80
2022/01/27 10:27:33;;;;;;;82.93;76.43;;;;;;;4.81;100.00;101933.47;5136113;27;20130;-80
2022/01/27 10:32:48;;;;;;;87.32;80.28;;;;;;;4.29;100.00;101938.94;5123932;27;20046;-80
2022/01/27 10:35:17;;;;;;;81.15;74.85;;;;;;;3.88;100.00;101939.94;5146396;27;20051;-80
2022/01/27 10:38:09;;;;;;;89.40;82.07;;;;;;;3.93;100.00;101919.34;5144757;27;20115;-79
2022/01/27 10:40:38;;;;;;;84.50;78.30;;;;;;;4.39;100.00;101925.00;5123474;27;20069;-79
2022/01/27 10:43:09;;;;;;;85.05;78.10;;;;;;;4.35;100.00;101916.53;5146396;27;20043;-79
2022/01/27 10:45:42;;;;;;;84.05;77.45;;;;;;;4.78;100.00;101913.56;5143954;27;20111;-80
2022/01/27 10:48:17;;;;;;;86.03;79.03;;;;;;;4.71;100.00;101911.59;5139804;27;20054;-79
2022/01/27 10:50:51;;;;;;;85.13;77.97;;;;;;;4.59;100.00;101916.97;5144770;27;20072;-80
2022/01/27 10:53:19;;;;;;;80.55;74.25;;;;;;;4.39;100.00;101909.19;5139609;27;20074;-78
2022/01/27 10:56:01;;;;;;;87.63;80.40;;;;;;;4.64;100.00;101903.44;5147612;27;20053;-80
2022/01/27 10:58:28;;;;;;;91.57;84.03;;;;;;;4.71;100.00;101895.81;5142171;27;20050;-80
2022/01/27 11:01:00;;;;;;;81.30;74.70;;;;;;;5.18;100.00;101886.19;5137344;27;20088;-81
2022/01/27 11:03:28;;;;;;;81.40;74.60;;;;;;;4.71;100.00;101890.53;5141371;27;20050;-79
2022/01/27 11:05:56;;;;;;;81.10;74.35;;;;;;;4.13;100.00;101889.50;5143986;27;20051;-79
2022/01/27 11:08:26;;;;;;;78.75;72.53;;;;;;;4.65;100.00;101876.13;5143960;27;20047;-79
2022/01/27 11:10:53;;;;;;;75.03;69.20;;;;;;;4.81;100.00;101881.69;5143961;27;20039;-80
2022/01/27 11:13:23;;;;;;;80.05;73.47;;;;;;;4.87;100.00;101882.06;5144084;27;20043;-78
2022/01/27 11:15:54;;;;;;;81.32;74.80;;;;;;;5.01;100.00;101864.03;5142088;27;20062;-79
2022/01/27 11:18:25;;;;;;;76.77;70.60;;;;;;;4.86;100.00;101868.09;5140238;27;20065;-80
2022/01/27 11:20:58;;;;;;;72.35;67.03;;;;;;;4.72;100.00;101856.22;5143736;27;20088;-79
2022/01/27 11:24:00;;;;;;;80.80;74.25;;;;;;;4.81;100.00;101855.38;5140813;27;20134;-83
2022/01/27 11:26:28;;;;;;;76.78;70.60;;;;;;;5.20;100.00;101854.44;5137645;27;20490;-80
2022/01/27 11:28:57;;;;;;;79.95;73.75;;;;;;;5.16;100.00;101850.44;5141201;27;20072;-79
2022/01/27 11:31:38;;;;;;;87.82;80.75;;;;;;;5.40;100.00;101853.41;5135172;27;20058;-78
2022/01/27 11:34:08;;;;;;;83.70;77.30;;;;;;;5.24;100.00;101845.28;5145991;27;20107;-80
2022/01/27 11:36:36;;;;;;;87.80;80.70;;;;;;;6.36;100.00;101835.41;5144754;27;20047;-79
2022/01/27 11:39:08;;;;;;;86.40;79.45;;;;;;;5.94;100.00;101843.91;5145210;27;20047;-81
2022/01/27 11:41:40;;;;;;;81.38;74.70;;;;;;;6.15;100.00;101833.06;5140950;27;20055;-80
2022/01/27 11:44:24;;;;;;;79.88;73.93;;;;;;;6.08;100.00;101836.44;5143421;27;20127;-78
2022/01/27 11:47:18;;;;;;;83.20;76.68;;;;;;;6.21;100.00;101815.00;5152323;27;20053;-81